createdAt,value
2023-03-12T00:00:26.796Z,80.95
2023-03-12T00:02:54.697Z,81.94
2023-03-12T00:05:25.818Z,81.30
2023-03-12T00:07:53.811Z,81.23
2023-03-12T00:10:22.237Z,81.95
2023-03-12T00:12:50.135Z,81.62
2023-03-12T00:15:19.821Z,81.85
2023-03-12T00:17:47.733Z,81.61
2023-03-12T00:20:16.268Z,81.88
2023-03-12T00:22:44.226Z,81.72
2023-03-12T00:25:14.456Z,82.40
2023-03-12T00:27:42.935Z,82.88
2023-03-12T00:30:12.600Z,83.26
2023-03-12T00:32:42.112Z,83.05
2023-03-12T00:35:10.734Z,82.24
2023-03-12T00:37:39.051Z,82.35
2023-03-12T00:40:09.436Z,82.25
2023-03-12T00:42:37.358Z,82.08
2023-03-12T00:45:05.744Z,81.83
2023-03-12T00:47:33.639Z,82.65
2023-03-12T00:50:02.960Z,81.74
2023-03-12T00:52:30.931Z,81.85
2023-03-12T00:54:58.996Z,82.52
2023-03-12T00:57:27.019Z,82.87
2023-03-12T00:59:54.983Z,80.86
2023-03-12T01:02:22.945Z,81.64
2023-03-12T01:04:50.902Z,81.85
2023-03-12T01:07:20.370Z,83.20
2023-03-12T01:09:48.355Z,81.80
2023-03-12T01:12:16.444Z,81.51
2023-03-12T01:14:44.371Z,81.67
2023-03-12T01:17:12.272Z,82.10
2023-03-12T01:19:40.254Z,81.37
2023-03-12T01:22:08.261Z,81.46
2023-03-12T01:24:37.602Z,81.97
2023-03-12T01:27:05.893Z,83.13
2023-03-12T01:29:33.792Z,82.45
2023-03-12T01:32:01.717Z,82.24
2023-03-12T01:34:30.840Z,82.42
2023-03-12T01:36:58.729Z,82.31
2023-03-12T01:39:26.853Z,82.45
2023-03-12T01:41:56.181Z,81.63
2023-03-12T01:44:24.118Z,82.60
2023-03-12T01:46:52.003Z,82.82
2023-03-12T01:49:24.681Z,82.68
2023-03-12T01:51:57.873Z,83.64
2023-03-12T01:54:31.504Z,83.50
2023-03-12T01:57:02.581Z,83.31
2023-03-12T01:59:34.153Z,83.44
2023-03-12T02:02:04.220Z,85.34
2023-03-12T02:04:33.358Z,83.71
2023-03-12T02:07:06.120Z,84.29
2023-03-12T02:09:36.769Z,84.18
2023-03-12T02:12:06.901Z,84.20
2023-03-12T02:14:35.239Z,83.77
2023-03-12T02:17:03.231Z,83.01
2023-03-12T02:19:39.432Z,83.25
2023-03-12T02:22:07.566Z,84.90
2023-03-12T02:24:40.273Z,84.63
2023-03-12T02:27:11.024Z,85.09
2023-03-12T02:29:42.054Z,84.88
2023-03-12T02:32:14.434Z,83.40
2023-03-12T02:34:42.372Z,84.20
2023-03-12T02:37:10.295Z,84.49
2023-03-12T02:39:40.300Z,84.37
2023-03-12T02:42:09.798Z,84.08
2023-03-12T02:44:38.098Z,85.20
2023-03-12T02:47:06.706Z,85.55
2023-03-12T02:49:36.157Z,85.14
2023-03-12T02:52:05.185Z,87.58
2023-03-12T02:54:33.306Z,86.42
2023-03-12T02:57:01.240Z,85.91
2023-03-12T02:59:30.599Z,85.73
2023-03-12T03:02:00.645Z,84.92
2023-03-12T03:04:29.966Z,85.55
2023-03-12T03:06:58.030Z,85.13
2023-03-12T03:09:26.117Z,84.85
2023-03-12T03:11:54.416Z,85.20
2023-03-12T03:14:23.330Z,84.94
2023-03-12T03:16:52.711Z,85.20
2023-03-12T03:19:20.660Z,85.01
2023-03-12T03:21:49.320Z,84.96
2023-03-12T03:24:17.339Z,83.59
2023-03-12T03:26:45.431Z,84.18
2023-03-12T03:29:13.348Z,84.54
2023-03-12T03:31:41.258Z,83.57
2023-03-12T03:34:10.587Z,83.62
2023-03-12T03:36:38.492Z,84.30
2023-03-12T03:39:06.437Z,84.42
2023-03-12T03:41:34.693Z,83.60
2023-03-12T03:44:02.647Z,83.62
2023-03-12T03:46:30.629Z,84.29
2023-03-12T03:48:58.984Z,83.61
2023-03-12T03:51:28.463Z,83.87
2023-03-12T03:53:57.118Z,84.11
2023-03-12T03:56:25.067Z,83.38
2023-03-12T03:58:53.353Z,84.00
2023-03-12T04:01:21.734Z,84.24
2023-03-12T04:03:49.629Z,84.74
2023-03-12T04:06:17.557Z,84.90
2023-03-12T04:08:47.340Z,84.70
2023-03-12T04:11:16.979Z,84.61
2023-03-12T04:13:45.584Z,84.28
2023-03-12T04:16:14.749Z,84.32
2023-03-12T04:18:43.032Z,84.34
2023-03-12T04:21:12.979Z,84.53
2023-03-12T04:23:41.194Z,84.88
2023-03-12T04:26:10.717Z,84.17
2023-03-12T04:28:39.531Z,84.35
2023-03-12T04:31:09.139Z,83.83
2023-03-12T04:33:39.064Z,83.69
2023-03-12T04:36:08.776Z,84.95
2023-03-12T04:38:36.988Z,83.96
2023-03-12T04:41:07.433Z,83.90
2023-03-12T04:43:37.048Z,84.16
2023-03-12T04:46:05.640Z,84.20
2023-03-12T04:48:33.799Z,84.69
2023-03-12T04:51:01.712Z,84.69
2023-03-12T04:53:29.731Z,83.26
2023-03-12T04:55:57.775Z,82.44
2023-03-12T04:58:25.721Z,83.98
2023-03-12T05:00:54.989Z,83.01
2023-03-12T05:03:23.216Z,83.25
2023-03-12T05:05:51.138Z,83.13
2023-03-12T05:08:19.052Z,82.80
2023-03-12T05:10:47.346Z,84.22
2023-03-12T05:13:16.559Z,83.98
2023-03-12T05:15:45.229Z,84.63
2023-03-12T05:18:14.904Z,82.97
2023-03-12T05:20:43.081Z,84.16
2023-03-12T05:23:11.069Z,82.56
2023-03-12T05:25:40.879Z,81.40
2023-03-12T05:28:09.130Z,82.16
2023-03-12T05:30:37.116Z,81.70
2023-03-12T05:33:05.239Z,80.38
2023-03-12T05:35:34.693Z,80.83
2023-03-12T05:38:02.655Z,79.81
2023-03-12T05:40:30.590Z,77.82
2023-03-12T05:42:58.570Z,78.18
2023-03-12T05:45:26.592Z,78.35
2023-03-12T05:47:54.589Z,76.73
2023-03-12T05:50:22.631Z,76.21
2023-03-12T05:52:52.241Z,76.99
2023-03-12T05:55:20.355Z,74.92
2023-03-12T05:57:48.496Z,75.27
2023-03-12T06:00:17.276Z,74.04
2023-03-12T06:02:45.296Z,73.64
2023-03-12T06:05:14.123Z,72.82
2023-03-12T06:07:42.081Z,74.30
2023-03-12T06:10:12.663Z,73.87
2023-03-12T06:12:40.590Z,70.66
2023-03-12T06:15:09.600Z,70.71
2023-03-12T06:17:37.523Z,70.01
2023-03-12T06:20:06.352Z,69.66
2023-03-12T06:22:34.287Z,69.53
2023-03-12T06:25:02.184Z,67.50
2023-03-12T06:27:31.921Z,66.99
2023-03-12T06:29:59.862Z,67.90
2023-03-12T06:32:27.789Z,68.17
2023-03-12T06:34:55.724Z,65.83
2023-03-12T06:37:23.650Z,64.33
2023-03-12T06:39:52.297Z,64.15
2023-03-12T06:42:20.866Z,62.24
2023-03-12T06:44:50.425Z,62.74
2023-03-12T06:47:18.559Z,65.41
2023-03-12T06:49:46.553Z,64.59
2023-03-12T06:52:14.481Z,62.66
2023-03-12T06:54:42.490Z,61.54
2023-03-12T06:57:10.471Z,64.62
2023-03-12T06:59:38.384Z,63.43
2023-03-12T07:02:07.993Z,60.75
2023-03-12T07:04:36.348Z,62.22
2023-03-12T07:07:04.907Z,62.21
2023-03-12T07:09:32.975Z,61.86
2023-03-12T07:12:00.857Z,61.38
2023-03-12T07:14:28.791Z,60.86
2023-03-12T07:16:57.243Z,61.55
2023-03-12T07:19:26.619Z,60.08
2023-03-12T07:21:54.567Z,58.75
2023-03-12T07:24:22.533Z,57.84
2023-03-12T07:26:50.498Z,58.30
2023-03-12T07:29:18.384Z,57.94
2023-03-12T07:31:46.344Z,58.43
2023-03-12T07:34:14.352Z,58.23
2023-03-12T07:36:43.886Z,57.39
2023-03-12T07:39:11.895Z,57.26
2023-03-12T07:41:39.834Z,55.20
2023-03-12T07:44:08.202Z,57.77
2023-03-12T07:46:36.314Z,59.04
2023-03-12T07:49:04.512Z,58.42
2023-03-12T07:51:32.461Z,58.39
2023-03-12T07:54:01.842Z,59.40
2023-03-12T07:56:29.931Z,59.09
2023-03-12T07:58:58.080Z,58.02
2023-03-12T08:01:32.022Z,58.05
2023-03-12T08:04:00.361Z,56.63
2023-03-12T08:06:28.512Z,57.71
2023-03-12T08:08:56.531Z,59.91
2023-03-12T08:11:26.535Z,60.60
2023-03-12T08:13:54.461Z,61.35
2023-03-12T08:16:22.437Z,60.66
2023-03-12T08:18:50.400Z,58.95
2023-03-12T08:21:18.342Z,58.00
2023-03-12T08:23:46.426Z,56.83
2023-03-12T08:26:14.416Z,57.33
2023-03-12T08:28:43.799Z,58.32
2023-03-12T08:31:12.216Z,60.82
2023-03-12T08:33:43.502Z,59.88
2023-03-12T08:36:12.082Z,61.34
2023-03-12T08:38:40.002Z,57.44
2023-03-12T08:41:07.956Z,56.77
2023-03-12T08:43:35.911Z,58.15
2023-03-12T08:46:05.521Z,57.04
2023-03-12T08:48:34.215Z,55.84
2023-03-12T08:51:05.878Z,56.78
2023-03-12T08:53:35.978Z,57.42
2023-03-12T08:56:05.403Z,56.92
2023-03-12T08:58:33.512Z,55.61
2023-03-12T09:01:01.469Z,57.38
2023-03-12T09:03:31.218Z,50.70
2023-03-12T09:06:09.784Z,54.33
2023-03-12T09:08:37.726Z,52.61
2023-03-12T09:11:06.028Z,53.70
2023-03-12T09:13:54.993Z,54.33
2023-03-12T09:16:21.930Z,54.48
2023-03-12T09:18:51.242Z,56.70
2023-03-12T09:21:19.157Z,58.62
2023-03-12T09:23:47.274Z,57.76
2023-03-12T09:26:15.666Z,57.74
2023-03-12T09:28:44.980Z,54.62
2023-03-12T09:31:13.527Z,58.28
2023-03-12T09:33:41.498Z,57.59
2023-03-12T09:36:11.449Z,58.30
2023-03-12T09:38:39.746Z,58.26
2023-03-12T09:41:15.900Z,56.59
2023-03-12T09:43:50.661Z,57.51
2023-03-12T09:46:28.088Z,57.41
2023-03-12T09:48:59.744Z,57.19
2023-03-12T09:51:34.768Z,54.21
2023-03-12T09:54:05.124Z,56.88
2023-03-12T09:56:34.324Z,54.97
2023-03-12T09:59:02.289Z,52.72
2023-03-12T10:01:38.485Z,51.83
2023-03-12T10:04:37.788Z,57.05
2023-03-12T10:07:21.960Z,55.89
2023-03-12T10:10:18.218Z,51.81
2023-03-12T10:13:02.244Z,52.25
2023-03-12T10:15:46.865Z,52.73
2023-03-12T10:18:26.357Z,53.36
2023-03-12T10:21:04.881Z,51.96
2023-03-12T10:23:45.678Z,52.19
2023-03-12T10:26:17.507Z,50.22
2023-03-12T10:28:49.462Z,51.11
2023-03-12T10:31:26.603Z,51.64
2023-03-12T10:33:57.974Z,52.01
2023-03-12T10:36:29.829Z,54.28
2023-03-12T10:38:59.149Z,56.62
2023-03-12T10:41:34.215Z,57.14
2023-03-12T10:44:07.243Z,57.94
2023-03-12T10:47:06.084Z,59.73
2023-03-12T10:49:36.177Z,53.66
2023-03-12T10:52:07.938Z,54.46
2023-03-12T10:54:40.754Z,55.83
2023-03-12T10:57:09.502Z,54.72
2023-03-12T10:59:39.311Z,53.40
2023-03-12T11:02:31.573Z,52.08
2023-03-12T11:05:00.731Z,52.14
2023-03-12T11:07:30.612Z,51.99
2023-03-12T11:10:18.479Z,53.42
2023-03-12T11:13:01.695Z,53.86
2023-03-12T11:15:32.589Z,56.60
2023-03-12T11:18:22.421Z,55.29
2023-03-12T11:20:53.316Z,53.95
2023-03-12T11:23:24.392Z,53.71
2023-03-12T11:25:56.722Z,52.20
2023-03-12T11:28:27.065Z,51.63
2023-03-12T11:30:58.084Z,52.89
2023-03-12T11:33:26.307Z,52.83
2023-03-12T11:36:09.271Z,52.26
2023-03-12T11:38:42.672Z,52.56
2023-03-12T11:41:28.790Z,51.50
2023-03-12T11:44:07.611Z,51.22
2023-03-12T11:46:52.346Z,50.00
2023-03-12T11:49:35.225Z,50.39
2023-03-12T11:52:11.852Z,52.70
2023-03-12T11:54:49.409Z,54.25
2023-03-12T11:57:29.882Z,53.79
2023-03-12T12:00:12.747Z,54.37
2023-03-12T12:03:09.562Z,51.04
2023-03-12T12:05:43.811Z,51.65
2023-03-12T12:08:25.037Z,50.90
2023-03-12T12:11:04.562Z,50.48
2023-03-12T12:13:43.740Z,52.15
2023-03-12T12:16:29.028Z,50.35
2023-03-12T12:19:08.412Z,48.49
2023-03-12T12:21:59.243Z,48.09
2023-03-12T12:24:40.128Z,48.89
2023-03-12T12:27:20.002Z,51.67
2023-03-12T12:30:11.068Z,46.21
2023-03-12T12:32:55.418Z,48.08
2023-03-12T12:35:30.530Z,48.69
2023-03-12T12:38:01.241Z,49.71
2023-03-12T12:40:37.482Z,48.64
2023-03-12T12:43:23.171Z,49.51
2023-03-12T12:45:54.807Z,50.06
2023-03-12T12:48:26.978Z,49.56
2023-03-12T12:50:59.643Z,46.04
2023-03-12T12:53:31.683Z,45.84
2023-03-12T12:56:10.444Z,48.14
2023-03-12T12:58:57.791Z,47.55
2023-03-12T13:01:28.234Z,46.80
2023-03-12T13:04:01.083Z,47.37
2023-03-12T13:06:30.051Z,48.31
2023-03-12T13:09:15.250Z,49.14
2023-03-12T13:11:46.664Z,45.24
2023-03-12T13:14:37.867Z,45.90
2023-03-12T13:17:22.078Z,43.79
2023-03-12T13:20:00.869Z,43.77
2023-03-12T13:22:45.948Z,43.10
2023-03-12T13:25:38.118Z,43.34
2023-03-12T13:28:32.761Z,44.48
2023-03-12T13:31:01.046Z,44.30
2023-03-12T13:33:42.204Z,44.54
2023-03-12T13:36:24.451Z,44.37
2023-03-12T13:38:58.971Z,44.49
2023-03-12T13:41:37.707Z,44.94
2023-03-12T13:44:30.612Z,42.12
2023-03-12T13:47:00.454Z,42.63
2023-03-12T13:49:36.984Z,42.90
2023-03-12T13:52:23.484Z,41.80
2023-03-12T13:55:00.790Z,42.28
2023-03-12T13:57:39.093Z,41.52
2023-03-12T14:00:16.522Z,41.68
2023-03-12T14:02:49.715Z,42.17
2023-03-12T14:05:20.921Z,41.92
2023-03-12T14:08:16.261Z,41.80
2023-03-12T14:11:04.342Z,41.21
2023-03-12T14:13:46.796Z,41.16
2023-03-12T14:16:22.339Z,43.08
2023-03-12T14:18:52.156Z,41.73
2023-03-12T14:21:23.385Z,41.92
2023-03-12T14:23:55.900Z,44.46
2023-03-12T14:26:26.836Z,43.39
2023-03-12T14:29:01.309Z,43.85
2023-03-12T14:31:31.744Z,40.84
2023-03-12T14:34:05.202Z,42.48
2023-03-12T14:36:41.739Z,41.72
2023-03-12T14:39:25.494Z,42.40
2023-03-12T14:42:00.045Z,40.86
2023-03-12T14:44:30.562Z,42.41
2023-03-12T14:47:00.812Z,43.42
2023-03-12T14:49:29.598Z,43.43
2023-03-12T14:51:59.322Z,42.72
2023-03-12T14:54:28.850Z,42.39
2023-03-12T14:56:56.849Z,41.76
2023-03-12T14:59:27.914Z,43.27
2023-03-12T15:02:01.055Z,42.13
2023-03-12T15:04:31.125Z,42.06
2023-03-12T15:07:04.584Z,42.39
2023-03-12T15:09:35.624Z,42.75
2023-03-12T15:12:06.622Z,42.13
2023-03-12T15:14:39.514Z,41.95
2023-03-12T15:17:08.748Z,42.13
2023-03-12T15:19:41.657Z,42.74
2023-03-12T15:22:17.965Z,42.00
2023-03-12T15:24:46.294Z,43.08
2023-03-12T15:27:32.852Z,41.95
2023-03-12T15:30:02.180Z,42.37
2023-03-12T15:32:31.937Z,42.92
2023-03-12T15:35:00.423Z,43.76
2023-03-12T15:37:37.883Z,44.28
2023-03-12T15:40:10.745Z,44.32
2023-03-12T15:42:41.967Z,44.34
2023-03-12T15:45:19.916Z,44.22
2023-03-12T15:47:49.281Z,44.70
2023-03-12T15:50:23.256Z,44.71
2023-03-12T15:53:04.323Z,45.17
2023-03-12T15:55:33.891Z,45.85
2023-03-12T15:58:02.518Z,46.39
2023-03-12T16:00:31.702Z,46.49
2023-03-12T16:03:00.712Z,46.57
2023-03-12T16:05:33.229Z,47.00
2023-03-12T16:08:11.500Z,47.99
2023-03-12T16:10:40.104Z,48.44
2023-03-12T16:13:08.373Z,48.53
2023-03-12T16:15:40.103Z,49.01
2023-03-12T16:18:13.541Z,49.26
2023-03-12T16:20:41.572Z,48.83
2023-03-12T16:23:11.027Z,49.40
2023-03-12T16:25:39.296Z,49.49
2023-03-12T16:28:08.292Z,49.97
2023-03-12T16:30:37.910Z,49.86
2023-03-12T16:33:09.160Z,49.71
2023-03-12T16:35:37.531Z,50.26
2023-03-12T16:38:05.599Z,50.76
2023-03-12T16:40:37.259Z,51.11
2023-03-12T16:43:08.405Z,51.41
2023-03-12T16:45:37.769Z,51.54
2023-03-12T16:48:07.258Z,52.53
2023-03-12T16:50:35.308Z,52.48
2023-03-12T16:53:04.965Z,52.76
2023-03-12T16:55:46.146Z,52.89
2023-03-12T16:58:16.563Z,53.00
2023-03-12T17:00:45.123Z,53.11
2023-03-12T17:03:20.666Z,54.16
2023-03-12T17:05:48.633Z,54.52
2023-03-12T17:08:17.901Z,54.80
2023-03-12T17:10:47.239Z,54.86
2023-03-12T17:13:20.124Z,55.20
2023-03-12T17:15:48.498Z,55.44
2023-03-12T17:18:16.749Z,56.17
2023-03-12T17:20:44.822Z,56.31
2023-03-12T17:23:12.896Z,54.90
2023-03-12T17:25:42.810Z,54.93
2023-03-12T17:28:13.674Z,54.74
2023-03-12T17:30:42.035Z,54.56
2023-03-12T17:33:12.604Z,52.86
2023-03-12T17:35:40.948Z,53.95
2023-03-12T17:38:09.600Z,54.59
2023-03-12T17:40:41.472Z,54.40
2023-03-12T17:43:09.461Z,54.97
2023-03-12T17:45:38.752Z,54.93
2023-03-12T17:48:06.939Z,54.68
2023-03-12T17:50:34.973Z,55.22
2023-03-12T17:53:03.002Z,55.86
2023-03-12T17:55:30.931Z,56.24
2023-03-12T17:57:58.893Z,56.40
2023-03-12T18:00:26.828Z,57.06
2023-03-12T18:02:56.165Z,57.67
2023-03-12T18:05:24.168Z,57.48
2023-03-12T18:07:52.505Z,57.28
2023-03-12T18:10:20.609Z,57.40
2023-03-12T18:12:48.525Z,57.44
2023-03-12T18:15:16.940Z,58.04
2023-03-12T18:17:45.732Z,58.35
2023-03-12T18:20:21.302Z,58.33
2023-03-12T18:22:53.992Z,59.19
2023-03-12T18:25:21.910Z,59.30
2023-03-12T18:27:49.841Z,58.91
2023-03-12T18:30:18.801Z,59.54
2023-03-12T18:32:46.764Z,59.75
2023-03-12T18:35:16.125Z,60.05
2023-03-12T18:37:44.953Z,61.07
2023-03-12T18:40:13.915Z,60.95
2023-03-12T18:42:44.538Z,61.58
2023-03-12T18:45:13.382Z,62.24
2023-03-12T18:47:42.103Z,62.99
2023-03-12T18:50:11.639Z,63.58
2023-03-12T18:52:40.951Z,63.98
2023-03-12T18:55:15.192Z,64.18
2023-03-12T18:57:43.159Z,64.65
2023-03-12T19:00:15.117Z,64.73
2023-03-12T19:02:43.206Z,64.60
2023-03-12T19:05:12.024Z,64.91
2023-03-12T19:07:41.821Z,65.41
2023-03-12T19:10:11.687Z,64.89
2023-03-12T19:12:51.639Z,65.01
2023-03-12T19:15:21.126Z,63.75
2023-03-12T19:17:49.038Z,63.68
2023-03-12T19:20:17.627Z,63.55
2023-03-12T19:22:47.028Z,63.81
2023-03-12T19:25:15.857Z,63.89
2023-03-12T19:27:43.810Z,63.94
2023-03-12T19:30:13.787Z,63.62
2023-03-12T19:32:44.255Z,63.37
2023-03-12T19:35:14.516Z,63.80
2023-03-12T19:37:43.105Z,63.72
2023-03-12T19:40:14.063Z,63.63
2023-03-12T19:42:42.099Z,64.30
2023-03-12T19:45:11.329Z,64.64
2023-03-12T19:47:39.364Z,65.31
2023-03-12T19:50:11.760Z,65.50
2023-03-12T19:52:39.774Z,66.32
2023-03-12T19:55:08.986Z,66.34
2023-03-12T19:57:38.744Z,66.36
2023-03-12T20:00:12.435Z,66.31
2023-03-12T20:02:41.382Z,67.40
2023-03-12T20:05:10.920Z,68.03
2023-03-12T20:07:38.971Z,67.55
2023-03-12T20:10:09.970Z,67.58
2023-03-12T20:12:40.217Z,67.09
2023-03-12T20:15:09.488Z,66.58
2023-03-12T20:17:37.496Z,67.32
2023-03-12T20:20:07.502Z,67.08
2023-03-12T20:22:36.473Z,67.14
2023-03-12T20:25:05.359Z,67.49
2023-03-12T20:27:34.421Z,67.91
2023-03-12T20:30:04.748Z,67.85
2023-03-12T20:32:32.872Z,68.72
2023-03-12T20:35:00.993Z,68.97
2023-03-12T20:37:29.031Z,67.68
2023-03-12T20:39:57.035Z,66.72
2023-03-12T20:42:25.158Z,67.12
2023-03-12T20:44:53.166Z,67.82
2023-03-12T20:47:23.622Z,66.94
2023-03-12T20:49:51.685Z,67.60
2023-03-12T20:52:19.692Z,67.74
2023-03-12T20:54:47.702Z,67.91
2023-03-12T20:57:15.704Z,68.89
2023-03-12T20:59:43.700Z,68.79
2023-03-12T21:02:14.150Z,69.34
2023-03-12T21:04:44.284Z,69.20
2023-03-12T21:07:12.290Z,68.92
2023-03-12T21:09:40.310Z,68.55
2023-03-12T21:12:08.326Z,68.35
2023-03-12T21:14:36.332Z,68.60
2023-03-12T21:17:04.400Z,70.43
2023-03-12T21:19:32.786Z,70.78
2023-03-12T21:22:02.166Z,71.28
2023-03-12T21:24:30.167Z,72.07
2023-03-12T21:26:58.223Z,71.71
2023-03-12T21:29:26.209Z,71.89
2023-03-12T21:31:54.860Z,72.55
2023-03-12T21:34:23.038Z,72.75
2023-03-12T21:36:51.065Z,73.56
2023-03-12T21:39:21.344Z,74.27
2023-03-12T21:41:49.462Z,75.80
2023-03-12T21:44:17.452Z,75.56
2023-03-12T21:46:45.506Z,75.47
2023-03-12T21:49:17.943Z,75.56
2023-03-12T21:51:46.256Z,75.85
2023-03-12T21:54:14.382Z,75.40
2023-03-12T21:56:43.776Z,75.37
2023-03-12T21:59:11.796Z,74.93
2023-03-12T22:01:39.911Z,75.15
2023-03-12T22:04:08.059Z,75.78
2023-03-12T22:06:36.108Z,75.60
2023-03-12T22:09:04.309Z,75.96
2023-03-12T22:11:32.356Z,77.09
2023-03-12T22:14:01.773Z,76.39
2023-03-12T22:16:29.880Z,78.08
2023-03-12T22:18:58.145Z,78.54
2023-03-12T22:21:26.474Z,78.71
2023-03-12T22:23:57.320Z,79.56
2023-03-12T22:26:26.406Z,79.36
2023-03-12T22:28:56.047Z,79.07
2023-03-12T22:31:27.228Z,80.62
2023-03-12T22:33:55.694Z,80.70
2023-03-12T22:36:24.281Z,81.24
2023-03-12T22:38:53.033Z,81.30
2023-03-12T22:41:23.228Z,81.26
2023-03-12T22:43:53.043Z,81.03
2023-03-12T22:46:22.378Z,81.31
2023-03-12T22:48:55.727Z,81.55
2023-03-12T22:51:23.854Z,82.77
2023-03-12T22:53:52.178Z,81.84
2023-03-12T22:56:20.534Z,81.62
2023-03-12T22:58:48.948Z,82.00
2023-03-12T23:01:18.682Z,82.06
2023-03-12T23:03:48.004Z,81.48
2023-03-12T23:06:19.367Z,81.21
2023-03-12T23:08:48.131Z,81.17
2023-03-12T23:11:17.568Z,80.11
2023-03-12T23:13:48.228Z,80.24
2023-03-12T23:16:19.218Z,79.87
2023-03-12T23:18:48.224Z,80.10
2023-03-12T23:21:19.311Z,80.04
2023-03-12T23:23:48.272Z,79.95
2023-03-12T23:26:18.813Z,79.55
2023-03-12T23:28:47.563Z,79.25
2023-03-12T23:31:17.152Z,80.52
2023-03-12T23:33:45.524Z,80.87
2023-03-12T23:36:15.850Z,79.80
2023-03-12T23:38:45.937Z,79.58
2023-03-12T23:41:16.618Z,79.22
2023-03-12T23:43:45.447Z,78.98
2023-03-12T23:46:14.567Z,78.83
2023-03-12T23:48:42.754Z,78.53
2023-03-12T23:51:13.094Z,78.64
2023-03-12T23:53:42.580Z,78.21
2023-03-12T23:56:14.742Z,77.61
2023-03-12T23:58:43.547Z,77.29
